createdAt,value
2023-05-12T00:02:40.258Z,100.00
2023-05-12T00:05:46.582Z,100.00
2023-05-12T00:08:52.594Z,100.00
2023-05-12T00:11:58.630Z,100.00
2023-05-12T00:15:07.286Z,100.00
2023-05-12T00:18:13.532Z,100.00
2023-05-12T00:21:19.942Z,100.00
2023-05-12T00:24:26.528Z,100.00
2023-05-12T00:27:33.126Z,100.00
2023-05-12T00:30:40.829Z,100.00
2023-05-12T00:33:47.317Z,100.00
2023-05-12T00:36:53.524Z,100.00
2023-05-12T00:39:59.652Z,100.00
2023-05-12T00:43:05.811Z,100.00
2023-05-12T00:46:13.763Z,100.00
2023-05-12T00:49:20.279Z,100.00
2023-05-12T00:52:26.355Z,100.00
2023-05-12T00:55:32.350Z,100.00
2023-05-12T00:58:38.257Z,100.00
2023-05-12T01:01:46.072Z,100.00
2023-05-12T01:04:53.638Z,100.00
2023-05-12T01:08:01.913Z,100.00
2023-05-12T01:11:07.974Z,100.00
2023-05-12T01:14:13.806Z,100.00
2023-05-12T01:17:26.715Z,100.00
2023-05-12T01:20:34.332Z,100.00
2023-05-12T01:23:46.163Z,100.00
2023-05-12T01:26:53.776Z,100.00
2023-05-12T01:30:02.338Z,100.00
2023-05-12T01:33:09.162Z,100.00
2023-05-12T01:36:15.373Z,100.00
2023-05-12T01:39:21.651Z,100.00
2023-05-12T01:42:29.576Z,100.00
2023-05-12T01:45:35.608Z,100.00
2023-05-12T01:48:41.860Z,100.00
2023-05-12T01:51:48.017Z,100.00
2023-05-12T01:54:54.158Z,100.00
2023-05-12T01:58:01.626Z,100.00
2023-05-12T02:01:07.916Z,100.00
2023-05-12T02:04:14.034Z,100.00
2023-05-12T02:07:20.371Z,100.00
2023-05-12T02:10:26.409Z,100.00
2023-05-12T02:13:33.963Z,100.00
2023-05-12T02:16:40.562Z,100.00
2023-05-12T02:19:47.004Z,100.00
2023-05-12T02:22:53.142Z,100.00
2023-05-12T02:25:59.521Z,100.00
2023-05-12T02:29:06.959Z,100.00
2023-05-12T02:32:13.202Z,100.00
2023-05-12T02:35:19.362Z,100.00
2023-05-12T02:38:25.350Z,100.00
2023-05-12T02:41:31.102Z,100.00
2023-05-12T02:44:38.339Z,100.00
2023-05-12T02:47:44.331Z,100.00
2023-05-12T02:50:50.410Z,100.00
2023-05-12T02:53:56.602Z,100.00
2023-05-12T02:57:06.243Z,100.00
2023-05-12T03:00:14.821Z,100.00
2023-05-12T03:03:21.337Z,100.00
2023-05-12T03:06:27.986Z,100.00
2023-05-12T03:09:34.335Z,100.00
2023-05-12T03:12:40.818Z,100.00
2023-05-12T03:15:48.314Z,100.00
2023-05-12T03:18:54.753Z,100.00
2023-05-12T03:22:00.882Z,100.00
2023-05-12T03:25:08.527Z,100.00
2023-05-12T03:28:14.839Z,100.00
2023-05-12T03:31:23.120Z,100.00
2023-05-12T03:34:29.434Z,100.00
2023-05-12T03:37:35.683Z,100.00
2023-05-12T03:40:41.784Z,100.00
2023-05-12T03:43:47.812Z,100.00
2023-05-12T03:46:55.527Z,100.00
2023-05-12T03:50:01.742Z,100.00
2023-05-12T03:53:07.966Z,100.00
2023-05-12T03:56:14.014Z,100.00
2023-05-12T03:59:20.274Z,100.00
2023-05-12T04:02:28.206Z,100.00
2023-05-12T04:05:34.607Z,100.00
2023-05-12T04:08:41.957Z,100.00
2023-05-12T04:11:48.458Z,100.00
2023-05-12T04:14:54.768Z,100.00
2023-05-12T04:18:02.475Z,100.00
2023-05-12T04:21:08.557Z,100.00
2023-05-12T04:24:14.968Z,100.00
2023-05-12T04:27:21.340Z,100.00
2023-05-12T04:30:27.359Z,100.00
2023-05-12T04:33:34.824Z,100.00
2023-05-12T04:36:40.688Z,100.00
2023-05-12T04:39:46.782Z,100.00
2023-05-12T04:42:52.576Z,100.00
2023-05-12T04:46:00.210Z,100.00
2023-05-12T04:49:08.084Z,100.00
2023-05-12T04:52:14.290Z,100.00
2023-05-12T04:55:20.732Z,100.00
2023-05-12T04:58:26.984Z,100.00
2023-05-12T05:01:33.212Z,100.00
2023-05-12T05:04:40.780Z,100.00
2023-05-12T05:07:47.310Z,100.00
2023-05-12T05:10:53.533Z,100.00
2023-05-12T05:13:59.846Z,100.00
2023-05-12T05:17:08.022Z,100.00
2023-05-12T05:20:16.115Z,100.00
2023-05-12T05:23:22.972Z,100.00
2023-05-12T05:26:29.163Z,100.00
2023-05-12T05:29:35.240Z,100.00
2023-05-12T05:32:41.330Z,100.00
2023-05-12T05:35:49.235Z,100.00
2023-05-12T05:38:55.342Z,100.00
2023-05-12T05:42:01.637Z,100.00
2023-05-12T05:45:09.283Z,100.00
2023-05-12T05:48:15.274Z,100.00
2023-05-12T05:51:22.705Z,100.00
2023-05-12T05:54:28.937Z,100.00
2023-05-12T05:57:35.062Z,100.00
2023-05-12T06:00:41.237Z,100.00
2023-05-12T06:03:47.655Z,100.00
2023-05-12T06:06:55.425Z,100.00
2023-05-12T06:10:01.742Z,100.00
2023-05-12T06:13:08.501Z,100.00
2023-05-12T06:16:14.774Z,100.00
2023-05-12T06:19:21.082Z,100.00
2023-05-12T06:22:28.725Z,100.00
2023-05-12T06:25:34.712Z,100.00
2023-05-12T06:28:41.391Z,100.00
2023-05-12T06:31:47.982Z,100.00
2023-05-12T06:34:54.168Z,100.00
2023-05-12T06:38:01.701Z,100.00
2023-05-12T06:41:08.046Z,100.00
2023-05-12T06:44:13.900Z,100.00
2023-05-12T06:47:19.893Z,100.00
2023-05-12T06:50:26.259Z,100.00
2023-05-12T06:53:37.655Z,100.00
2023-05-12T06:56:43.788Z,100.00
2023-05-12T06:59:49.857Z,100.00
2023-05-12T07:02:56.379Z,100.00
2023-05-12T07:06:02.735Z,100.00
2023-05-12T07:09:10.128Z,100.00
2023-05-12T07:12:16.416Z,100.00
2023-05-12T07:15:22.952Z,100.00
2023-05-12T07:18:29.597Z,100.00
2023-05-12T07:21:36.480Z,100.00
2023-05-12T07:24:44.387Z,100.00
2023-05-12T07:27:51.077Z,100.00
2023-05-12T07:30:57.762Z,100.00
2023-05-12T07:34:04.366Z,100.00
2023-05-12T07:37:10.534Z,100.00
2023-05-12T07:40:18.394Z,100.00
2023-05-12T07:43:24.690Z,100.00
2023-05-12T07:46:30.633Z,100.00
2023-05-12T07:49:36.762Z,100.00
2023-05-12T07:52:48.360Z,100.00
2023-05-12T07:55:56.015Z,100.00
2023-05-12T07:59:02.363Z,100.00
2023-05-12T08:02:08.346Z,100.00
2023-05-12T08:05:14.801Z,100.00
2023-05-12T08:08:20.942Z,100.00
2023-05-12T08:11:28.753Z,100.00
2023-05-12T08:14:35.033Z,100.00
2023-05-12T08:17:41.342Z,100.00
2023-05-12T08:20:47.510Z,100.00
2023-05-12T08:23:53.542Z,100.00
2023-05-12T08:27:01.395Z,100.00
2023-05-12T08:30:08.705Z,100.00
2023-05-12T08:33:33.116Z,100.00
2023-05-12T08:36:39.694Z,100.00
2023-05-12T08:39:46.132Z,100.00
2023-05-12T08:43:02.076Z,100.00
2023-05-12T08:46:08.600Z,100.00
2023-05-12T08:49:18.568Z,100.00
2023-05-12T08:52:26.026Z,100.00
2023-05-12T08:55:34.337Z,100.00
2023-05-12T08:58:45.024Z,98.20
2023-05-12T09:01:51.928Z,96.90
2023-05-12T09:04:58.181Z,97.38
2023-05-12T09:08:04.702Z,98.34
2023-05-12T09:11:13.565Z,100.00
2023-05-12T09:14:25.686Z,95.15
2023-05-12T09:17:31.799Z,99.46
2023-05-12T09:20:38.049Z,96.07
2023-05-12T09:23:54.070Z,95.88
2023-05-12T09:27:00.777Z,95.39
2023-05-12T09:30:10.013Z,90.67
2023-05-12T09:33:16.330Z,90.09
2023-05-12T09:36:23.637Z,87.63
2023-05-12T09:39:30.190Z,89.51
2023-05-12T09:42:37.307Z,86.84
2023-05-12T09:45:47.688Z,89.43
2023-05-12T09:48:57.476Z,86.20
2023-05-12T09:52:06.138Z,87.34
2023-05-12T09:55:13.858Z,93.21
2023-05-12T09:58:21.857Z,90.06
2023-05-12T10:01:29.650Z,85.99
2023-05-12T10:04:40.392Z,90.26
2023-05-12T10:07:49.107Z,89.61
2023-05-12T10:10:57.600Z,88.66
2023-05-12T10:14:04.016Z,89.10
2023-05-12T10:17:12.608Z,81.93
2023-05-12T10:20:19.618Z,88.41
2023-05-12T10:23:26.881Z,89.51
2023-05-12T10:26:35.139Z,88.55
2023-05-12T10:29:42.027Z,88.15
2023-05-12T10:32:49.850Z,84.93
2023-05-12T10:35:56.069Z,89.82
2023-05-12T10:39:07.002Z,86.90
2023-05-12T10:42:12.829Z,86.91
2023-05-12T10:45:20.568Z,84.66
2023-05-12T10:48:28.008Z,80.77
2023-05-12T10:51:35.695Z,83.55
2023-05-12T10:54:44.692Z,84.47
2023-05-12T10:57:53.717Z,87.23
2023-05-12T11:01:07.189Z,84.84
2023-05-12T11:04:17.347Z,83.30
2023-05-12T11:07:26.744Z,84.38
2023-05-12T11:10:33.776Z,83.12
2023-05-12T11:13:40.441Z,79.81
2023-05-12T11:16:46.916Z,73.68
2023-05-12T11:19:55.233Z,75.20
2023-05-12T11:23:01.466Z,71.61
2023-05-12T11:26:07.502Z,76.10
2023-05-12T11:29:14.065Z,72.90
2023-05-12T11:32:20.179Z,80.83
2023-05-12T11:35:32.011Z,74.63
2023-05-12T11:38:38.066Z,76.56
2023-05-12T11:41:44.610Z,73.87
2023-05-12T11:44:51.529Z,77.49
2023-05-12T11:48:08.873Z,78.05
2023-05-12T11:51:17.568Z,78.10
2023-05-12T11:54:25.232Z,77.57
2023-05-12T11:57:33.543Z,83.42
2023-05-12T12:00:39.762Z,83.69
2023-05-12T12:03:48.727Z,83.15
2023-05-12T12:06:56.824Z,80.94
2023-05-12T12:10:13.117Z,80.96
2023-05-12T12:13:22.048Z,81.62
2023-05-12T12:16:28.859Z,80.16
2023-05-12T12:19:35.285Z,77.17
2023-05-12T12:22:43.057Z,80.65
2023-05-12T12:25:48.763Z,79.29
2023-05-12T12:28:55.040Z,76.94
2023-05-12T12:32:01.262Z,78.86
2023-05-12T12:35:09.032Z,80.25
2023-05-12T12:38:16.616Z,77.70
2023-05-12T12:41:22.716Z,76.94
2023-05-12T12:44:29.276Z,80.55
2023-05-12T12:47:35.783Z,83.01
2023-05-12T12:50:41.996Z,76.08
2023-05-12T12:53:49.449Z,76.31
2023-05-12T12:56:56.777Z,75.12
2023-05-12T13:00:02.628Z,77.96
2023-05-12T13:03:09.210Z,80.03
2023-05-12T13:06:15.295Z,79.13
2023-05-12T13:09:25.829Z,82.95
2023-05-12T13:12:32.668Z,83.12
2023-05-12T13:15:38.902Z,84.32
2023-05-12T13:18:46.012Z,83.89
2023-05-12T13:21:52.421Z,79.36
2023-05-12T13:24:59.878Z,81.19
2023-05-12T13:28:06.335Z,80.23
2023-05-12T13:31:12.468Z,81.88
2023-05-12T13:34:18.539Z,85.71
2023-05-12T13:37:24.951Z,89.03
2023-05-12T13:40:32.825Z,86.14
2023-05-12T13:43:38.920Z,87.72
2023-05-12T13:46:45.165Z,91.94
2023-05-12T13:49:51.280Z,88.43
2023-05-12T13:52:57.622Z,92.00
2023-05-12T13:56:04.935Z,86.78
2023-05-12T13:59:11.128Z,93.29
2023-05-12T14:02:17.601Z,96.76
2023-05-12T14:05:24.072Z,93.14
2023-05-12T14:08:30.338Z,88.89
2023-05-12T14:11:37.585Z,84.51
2023-05-12T14:14:49.665Z,74.61
2023-05-12T14:17:55.927Z,75.88
2023-05-12T14:21:02.539Z,79.29
2023-05-12T14:24:10.204Z,77.04
2023-05-12T14:27:17.886Z,76.04
2023-05-12T14:30:24.644Z,75.07
2023-05-12T14:33:31.756Z,72.54
2023-05-12T14:36:37.958Z,70.27
2023-05-12T14:39:43.945Z,69.74
2023-05-12T14:42:51.328Z,67.07
2023-05-12T14:45:57.791Z,73.59
2023-05-12T14:49:10.645Z,69.61
2023-05-12T14:52:17.152Z,75.62
2023-05-12T14:55:23.702Z,82.99
2023-05-12T14:58:31.618Z,86.84
2023-05-12T15:01:37.821Z,86.64
2023-05-12T15:04:43.818Z,84.98
2023-05-12T15:07:49.864Z,77.71
2023-05-12T15:10:55.679Z,84.14
2023-05-12T15:14:04.358Z,91.00
2023-05-12T15:17:10.572Z,93.61
2023-05-12T15:20:17.666Z,90.12
2023-05-12T15:23:23.515Z,90.71
2023-05-12T15:26:33.980Z,88.89
2023-05-12T15:29:42.591Z,89.58
2023-05-12T15:32:48.912Z,94.58
2023-05-12T15:35:54.792Z,96.21
2023-05-12T15:39:00.867Z,99.70
2023-05-12T15:42:07.549Z,95.09
2023-05-12T15:45:15.232Z,100.00
2023-05-12T15:48:21.884Z,100.00
2023-05-12T15:51:28.504Z,100.00
2023-05-12T15:54:34.555Z,100.00
2023-05-12T15:57:40.707Z,100.00
2023-05-12T16:00:48.322Z,96.52
2023-05-12T16:03:55.574Z,97.80
2023-05-12T16:07:01.791Z,99.79
2023-05-12T16:10:08.781Z,100.00
2023-05-12T16:13:15.041Z,100.00
2023-05-12T16:16:22.853Z,99.40
2023-05-12T16:19:28.940Z,99.01
2023-05-12T16:22:35.030Z,98.22
2023-05-12T16:25:42.151Z,99.16
2023-05-12T16:28:48.167Z,99.06
2023-05-12T16:31:55.928Z,98.21
2023-05-12T16:35:01.904Z,97.86
2023-05-12T16:38:08.345Z,100.00
2023-05-12T16:41:14.349Z,100.00
2023-05-12T16:44:20.582Z,100.00
2023-05-12T16:47:29.685Z,100.00
2023-05-12T16:50:35.738Z,100.00
2023-05-12T16:53:42.180Z,100.00
2023-05-12T16:56:48.492Z,100.00
2023-05-12T16:59:54.573Z,100.00
2023-05-12T17:03:03.801Z,100.00
2023-05-12T17:06:11.388Z,100.00
2023-05-12T17:09:18.113Z,100.00
2023-05-12T17:12:24.111Z,100.00
2023-05-12T17:15:30.099Z,100.00
2023-05-12T17:21:46.729Z,100.00
2023-05-12T17:24:52.895Z,100.00
2023-05-12T17:27:59.411Z,100.00
2023-05-12T17:31:05.912Z,100.00
2023-05-12T17:34:13.598Z,100.00
2023-05-12T17:37:19.859Z,100.00
2023-05-12T17:40:26.178Z,100.00
2023-05-12T17:43:32.279Z,100.00
2023-05-12T17:46:38.508Z,100.00
2023-05-12T17:49:46.683Z,100.00
2023-05-12T17:52:54.999Z,100.00
2023-05-12T17:56:01.591Z,100.00
2023-05-12T17:59:07.641Z,100.00
2023-05-12T18:02:14.515Z,100.00
2023-05-12T18:05:22.787Z,100.00
2023-05-12T18:08:29.313Z,100.00
2023-05-12T18:11:35.470Z,100.00
2023-05-12T18:14:41.828Z,100.00
2023-05-12T18:17:48.361Z,100.00
2023-05-12T18:20:56.189Z,100.00
2023-05-12T18:24:03.339Z,100.00
2023-05-12T18:27:09.435Z,100.00
2023-05-12T18:30:16.388Z,100.00
2023-05-12T18:33:22.673Z,100.00
2023-05-12T18:36:30.961Z,100.00
2023-05-12T18:39:37.463Z,100.00
2023-05-12T18:42:43.896Z,100.00
2023-05-12T18:45:50.379Z,100.00
2023-05-12T18:48:56.555Z,100.00
2023-05-12T18:52:04.343Z,100.00
2023-05-12T18:55:10.960Z,100.00
2023-05-12T18:58:17.676Z,100.00
2023-05-12T19:01:24.395Z,100.00
2023-05-12T19:04:30.543Z,100.00
2023-05-12T19:07:37.962Z,100.00
2023-05-12T19:10:44.312Z,100.00
2023-05-12T19:13:50.874Z,100.00
2023-05-12T19:16:57.234Z,100.00
2023-05-12T19:20:03.551Z,100.00
2023-05-12T19:23:11.142Z,100.00
2023-05-12T19:26:17.260Z,100.00
2023-05-12T19:29:23.860Z,100.00
2023-05-12T19:32:30.417Z,100.00
2023-05-12T19:35:36.978Z,100.00
2023-05-12T19:38:44.738Z,100.00
2023-05-12T19:41:51.782Z,100.00
2023-05-12T19:44:58.925Z,100.00
2023-05-12T19:48:05.353Z,100.00
2023-05-12T19:51:11.857Z,100.00
2023-05-12T19:54:19.396Z,100.00
2023-05-12T19:57:25.738Z,100.00
2023-05-12T20:00:31.784Z,100.00
2023-05-12T20:03:37.959Z,100.00
2023-05-12T20:06:44.425Z,100.00
2023-05-12T20:09:52.013Z,100.00
2023-05-12T20:12:58.153Z,100.00
2023-05-12T20:16:04.347Z,100.00
2023-05-12T20:19:10.906Z,100.00
2023-05-12T20:22:17.658Z,100.00
2023-05-12T20:25:27.149Z,100.00
2023-05-12T20:28:33.367Z,100.00
2023-05-12T20:31:39.561Z,100.00
2023-05-12T20:34:45.830Z,100.00
2023-05-12T20:37:52.155Z,100.00
2023-05-12T20:41:05.132Z,100.00
2023-05-12T20:44:11.724Z,100.00
2023-05-12T20:47:17.765Z,100.00
2023-05-12T20:50:23.931Z,100.00
2023-05-12T20:53:30.784Z,100.00
2023-05-12T20:56:38.482Z,100.00
2023-05-12T20:59:45.473Z,100.00
2023-05-12T21:02:52.618Z,100.00
2023-05-12T21:05:59.142Z,100.00
2023-05-12T21:09:05.475Z,100.00
2023-05-12T21:12:13.164Z,100.00
2023-05-12T21:15:19.578Z,100.00
2023-05-12T21:18:25.753Z,100.00
2023-05-12T21:21:31.805Z,100.00
2023-05-12T21:24:39.533Z,100.00
2023-05-12T21:27:47.559Z,100.00
2023-05-12T21:30:53.652Z,100.00
2023-05-12T21:33:59.900Z,100.00
2023-05-12T21:37:06.485Z,100.00
2023-05-12T21:40:13.468Z,100.00
2023-05-12T21:43:21.153Z,100.00
2023-05-12T21:46:27.474Z,100.00
2023-05-12T21:49:33.394Z,100.00
2023-05-12T21:52:40.394Z,100.00
2023-05-12T21:55:46.658Z,100.00
2023-05-12T21:58:54.346Z,100.00
2023-05-12T22:02:00.728Z,100.00
2023-05-12T22:05:08.211Z,100.00
2023-05-12T22:08:14.870Z,100.00
2023-05-12T22:11:21.397Z,100.00
2023-05-12T22:14:29.233Z,100.00
2023-05-12T22:17:35.980Z,100.00
2023-05-12T22:20:42.596Z,100.00
2023-05-12T22:23:49.137Z,100.00
2023-05-12T22:26:55.405Z,100.00
2023-05-12T22:30:03.073Z,100.00
2023-05-12T22:33:09.563Z,100.00
2023-05-12T22:36:16.710Z,100.00
2023-05-12T22:39:22.545Z,100.00
2023-05-12T22:42:28.714Z,100.00
2023-05-12T22:45:36.284Z,100.00
2023-05-12T22:48:42.648Z,100.00
2023-05-12T22:51:48.874Z,100.00
2023-05-12T22:54:55.124Z,100.00
2023-05-12T22:58:01.590Z,100.00
2023-05-12T23:01:09.311Z,100.00
2023-05-12T23:04:15.509Z,100.00
2023-05-12T23:07:21.690Z,100.00
2023-05-12T23:10:27.613Z,100.00
2023-05-12T23:13:34.155Z,100.00
2023-05-12T23:16:41.652Z,100.00
2023-05-12T23:19:48.186Z,100.00
2023-05-12T23:22:54.355Z,100.00
2023-05-12T23:26:00.552Z,100.00
2023-05-12T23:29:06.652Z,100.00
2023-05-12T23:32:14.393Z,100.00
2023-05-12T23:35:20.471Z,100.00
2023-05-12T23:38:26.343Z,100.00
2023-05-12T23:41:34.115Z,100.00
2023-05-12T23:44:40.297Z,100.00
2023-05-12T23:47:49.998Z,100.00
2023-05-12T23:50:56.308Z,100.00
2023-05-12T23:54:02.394Z,100.00
2023-05-12T23:57:08.454Z,100.00
